METAR AND TAF INFORMATION
METAR FOR DNMA
ADDS - METARS form results

(2012 UTC 24 March 2019)
Data provider http://aviationweather.gov/metar/data/
 
Forecast for: DNMA (MAIDUGURI , NG)
Text: TAF DNMA 241540Z 2418/2524 12012KT CAVOK
Forecast period: 1800 UTC 24 March 2019 to 0000 UTC 26 March 2019
Forecast type: FROM: standard forecast or significant change
Winds: from the ESE (120 degrees) at 14 MPH (12 knots; 6.2 m/s)
Visibility: 6 or more miles 10+ km)
Ceiling: unknown
Clouds: missing
Weather: NSW  (no significant weather)

AIRPORT MAP

RUNWAY INFORMATION
Runway 05 Runway length 9846 ft Runway width 197 ft
Runway elevation 1097 ft Runway displaced threshold 0 ft Runway heading 47
Runway 23 Runway length 9846 ft Runway width 197 ft
Runway elevation 1086 ft Runway displaced threshold 0 ft Runway heading 227

AIRPORT FREQUENCIES
Type TWR Name TWR Frequency 123.1 MHZ

AIRPORT NEAR NAVIGATION AIDS
Type NDB Name Maiduguri Frequency 332 KHZ
Type VOR-DME Name Maiduguri Frequency 113700 KHZ